sensor_id;sensor_type;location;lat;lon;timestamp;P1;durP1;ratioP1;P2;durP2;ratioP2
8556;SDS011;4316;53.840;10.762;2023-08-01T00:00:13;2.42;;;1.05;;
8556;SDS011;4316;53.840;10.762;2023-08-01T00:02:39;6.40;;;1.27;;
8556;SDS011;4316;53.840;10.762;2023-08-01T00:05:07;10.00;;;1.25;;
8556;SDS011;4316;53.840;10.762;2023-08-01T00:07:33;1.95;;;1.00;;
8556;SDS011;4316;53.840;10.762;2023-08-01T00:09:59;1.20;;;1.10;;
8556;SDS011;4316;53.840;10.762;2023-08-01T00:12:24;4.95;;;1.25;;
8556;SDS011;4316;53.840;10.762;2023-08-01T00:14:50;2.08;;;1.10;;
8556;SDS011;4316;53.840;10.762;2023-08-01T00:17:16;1.65;;;1.13;;
8556;SDS011;4316;53.840;10.762;2023-08-01T00:19:41;5.95;;;1.23;;
8556;SDS011;4316;53.840;10.762;2023-08-01T00:22:07;6.97;;;1.38;;
8556;SDS011;4316;53.840;10.762;2023-08-01T00:24:32;3.70;;;1.20;;
8556;SDS011;4316;53.840;10.762;2023-08-01T00:26:58;1.10;;;1.00;;
8556;SDS011;4316;53.840;10.762;2023-08-01T00:29:23;1.85;;;1.13;;
8556;SDS011;4316;53.840;10.762;2023-08-01T00:31:49;1.40;;;0.98;;
8556;SDS011;4316;53.840;10.762;2023-08-01T00:34:14;1.30;;;1.10;;
8556;SDS011;4316;53.840;10.762;2023-08-01T00:36:40;1.02;;;1.02;;
8556;SDS011;4316;53.840;10.762;2023-08-01T00:39:05;1.00;;;1.00;;
8556;SDS011;4316;53.840;10.762;2023-08-01T00:41:31;2.13;;;0.90;;
8556;SDS011;4316;53.840;10.762;2023-08-01T00:43:57;1.37;;;1.27;;
8556;SDS011;4316;53.840;10.762;2023-08-01T00:46:22;1.13;;;1.03;;
8556;SDS011;4316;53.840;10.762;2023-08-01T00:48:48;4.57;;;1.10;;
8556;SDS011;4316;53.840;10.762;2023-08-01T00:51:14;0.90;;;0.90;;
8556;SDS011;4316;53.840;10.762;2023-08-01T00:53:43;1.17;;;1.10;;
8556;SDS011;4316;53.840;10.762;2023-08-01T00:56:10;1.15;;;1.10;;
8556;SDS011;4316;53.840;10.762;2023-08-01T00:58:37;1.08;;;1.08;;
8556;SDS011;4316;53.840;10.762;2023-08-01T01:01:02;1.45;;;1.00;;
8556;SDS011;4316;53.840;10.762;2023-08-01T01:03:28;1.02;;;1.00;;
8556;SDS011;4316;53.840;10.762;2023-08-01T01:06:12;2.22;;;1.00;;
8556;SDS011;4316;53.840;10.762;2023-08-01T01:08:40;1.27;;;1.17;;
8556;SDS011;4316;53.840;10.762;2023-08-01T01:11:07;0.73;;;0.73;;
8556;SDS011;4316;53.840;10.762;2023-08-01T01:13:33;2.08;;;1.15;;
8556;SDS011;4316;53.840;10.762;2023-08-01T01:15:59;2.03;;;1.02;;
8556;SDS011;4316;53.840;10.762;2023-08-01T01:18:25;1.00;;;1.00;;
8556;SDS011;4316;53.840;10.762;2023-08-01T01:20:50;1.63;;;0.93;;
8556;SDS011;4316;53.840;10.762;2023-08-01T01:23:16;5.15;;;1.10;;
8556;SDS011;4316;53.840;10.762;2023-08-01T01:25:42;2.88;;;0.98;;
8556;SDS011;4316;53.840;10.762;2023-08-01T01:28:10;0.95;;;0.90;;
8556;SDS011;4316;53.840;10.762;2023-08-01T01:30:36;0.90;;;0.90;;
8556;SDS011;4316;53.840;10.762;2023-08-01T01:33:03;0.93;;;0.93;;
8556;SDS011;4316;53.840;10.762;2023-08-01T01:35:30;1.20;;;1.00;;
8556;SDS011;4316;53.840;10.762;2023-08-01T01:37:59;1.00;;;1.00;;
8556;SDS011;4316;53.840;10.762;2023-08-01T01:40:28;2.40;;;1.00;;
8556;SDS011;4316;53.840;10.762;2023-08-01T01:42:58;1.00;;;1.00;;
8556;SDS011;4316;53.840;10.762;2023-08-01T01:45:27;3.28;;;1.10;;
8556;SDS011;4316;53.840;10.762;2023-08-01T01:47:52;1.10;;;1.10;;
8556;SDS011;4316;53.840;10.762;2023-08-01T01:50:18;2.72;;;1.27;;
8556;SDS011;4316;53.840;10.762;2023-08-01T01:52:44;1.05;;;0.80;;
8556;SDS011;4316;53.840;10.762;2023-08-01T01:55:10;1.52;;;1.00;;
8556;SDS011;4316;53.840;10.762;2023-08-01T01:57:37;1.50;;;1.40;;
8556;SDS011;4316;53.840;10.762;2023-08-01T02:00:03;1.42;;;1.42;;
8556;SDS011;4316;53.840;10.762;2023-08-01T02:02:38;1.75;;;1.30;;
8556;SDS011;4316;53.840;10.762;2023-08-01T02:05:03;1.85;;;1.48;;
8556;SDS011;4316;53.840;10.762;2023-08-01T02:07:29;5.75;;;1.88;;
8556;SDS011;4316;53.840;10.762;2023-08-01T02:09:55;1.60;;;1.50;;
8556;SDS011;4316;53.840;10.762;2023-08-01T02:12:21;1.70;;;1.60;;
8556;SDS011;4316;53.840;10.762;2023-08-01T02:14:47;1.50;;;1.40;;
8556;SDS011;4316;53.840;10.762;2023-08-01T02:17:12;4.22;;;1.70;;
8556;SDS011;4316;53.840;10.762;2023-08-01T02:19:38;2.70;;;1.40;;
8556;SDS011;4316;53.840;10.762;2023-08-01T02:22:04;4.28;;;2.00;;
8556;SDS011;4316;53.840;10.762;2023-08-01T02:24:29;2.78;;;1.50;;
8556;SDS011;4316;53.840;10.762;2023-08-01T02:26:55;1.55;;;1.45;;
8556;SDS011;4316;53.840;10.762;2023-08-01T02:29:20;1.83;;;1.67;;
8556;SDS011;4316;53.840;10.762;2023-08-01T02:31:46;1.75;;;1.65;;
8556;SDS011;4316;53.840;10.762;2023-08-01T02:34:12;1.63;;;1.52;;
8556;SDS011;4316;53.840;10.762;2023-08-01T02:36:37;2.10;;;1.95;;
8556;SDS011;4316;53.840;10.762;2023-08-01T02:39:05;2.13;;;1.60;;
8556;SDS011;4316;53.840;10.762;2023-08-01T02:41:31;1.80;;;1.70;;
8556;SDS011;4316;53.840;10.762;2023-08-01T02:43:56;1.80;;;1.70;;
8556;SDS011;4316;53.840;10.762;2023-08-01T02:46:22;1.80;;;1.70;;
8556;SDS011;4316;53.840;10.762;2023-08-01T02:48:48;4.05;;;1.60;;
8556;SDS011;4316;53.840;10.762;2023-08-01T02:51:13;4.82;;;1.67;;
8556;SDS011;4316;53.840;10.762;2023-08-01T02:53:39;1.50;;;1.50;;
8556;SDS011;4316;53.840;10.762;2023-08-01T02:56:06;7.50;;;2.05;;
8556;SDS011;4316;53.840;10.762;2023-08-01T02:58:33;1.75;;;1.65;;
8556;SDS011;4316;53.840;10.762;2023-08-01T03:01:00;2.50;;;1.73;;
8556;SDS011;4316;53.840;10.762;2023-08-01T03:03:26;1.60;;;1.50;;
8556;SDS011;4316;53.840;10.762;2023-08-01T03:05:52;2.60;;;1.40;;
8556;SDS011;4316;53.840;10.762;2023-08-01T03:08:17;1.77;;;1.67;;
8556;SDS011;4316;53.840;10.762;2023-08-01T03:10:43;1.60;;;1.58;;
8556;SDS011;4316;53.840;10.762;2023-08-01T03:13:09;1.30;;;1.30;;
8556;SDS011;4316;53.840;10.762;2023-08-01T03:15:36;5.80;;;1.70;;
8556;SDS011;4316;53.840;10.762;2023-08-01T03:18:02;1.70;;;1.60;;
8556;SDS011;4316;53.840;10.762;2023-08-01T03:20:29;2.58;;;1.73;;
8556;SDS011;4316;53.840;10.762;2023-08-01T03:22:54;1.42;;;1.38;;
8556;SDS011;4316;53.840;10.762;2023-08-01T03:25:20;2.33;;;1.67;;
8556;SDS011;4316;53.840;10.762;2023-08-01T03:27:45;2.03;;;1.92;;
8556;SDS011;4316;53.840;10.762;2023-08-01T03:30:11;1.90;;;1.80;;
8556;SDS011;4316;53.840;10.762;2023-08-01T03:32:36;6.57;;;1.80;;
8556;SDS011;4316;53.840;10.762;2023-08-01T03:35:03;4.35;;;2.10;;
8556;SDS011;4316;53.840;10.762;2023-08-01T03:37:29;2.03;;;1.92;;
8556;SDS011;4316;53.840;10.762;2023-08-01T03:39:55;5.00;;;1.92;;
8556;SDS011;4316;53.840;10.762;2023-08-01T03:42:20;2.78;;;2.50;;
8556;SDS011;4316;53.840;10.762;2023-08-01T03:44:46;2.75;;;2.33;;
8556;SDS011;4316;53.840;10.762;2023-08-01T03:47:11;6.15;;;2.65;;
8556;SDS011;4316;53.840;10.762;2023-08-01T03:49:37;6.07;;;2.70;;
8556;SDS011;4316;53.840;10.762;2023-08-01T03:52:04;5.70;;;2.80;;
8556;SDS011;4316;53.840;10.762;2023-08-01T03:54:30;2.97;;;2.78;;
8556;SDS011;4316;53.840;10.762;2023-08-01T03:56:56;4.72;;;3.22;;
8556;SDS011;4316;53.840;10.762;2023-08-01T03:59:21;3.33;;;2.80;;
8556;SDS011;4316;53.840;10.762;2023-08-01T04:01:47;6.50;;;3.20;;
8556;SDS011;4316;53.840;10.762;2023-08-01T04:04:13;6.10;;;3.63;;
8556;SDS011;4316;53.840;10.762;2023-08-01T04:06:39;4.80;;;3.40;;
8556;SDS011;4316;53.840;10.762;2023-08-01T04:09:05;3.90;;;3.00;;
8556;SDS011;4316;53.840;10.762;2023-08-01T04:11:31;8.95;;;3.40;;
8556;SDS011;4316;53.840;10.762;2023-08-01T04:13:57;3.90;;;3.05;;
8556;SDS011;4316;53.840;10.762;2023-08-01T04:16:23;3.20;;;2.90;;
8556;SDS011;4316;53.840;10.762;2023-08-01T04:18:48;5.43;;;3.20;;
8556;SDS011;4316;53.840;10.762;2023-08-01T04:21:14;7.82;;;3.78;;
8556;SDS011;4316;53.840;10.762;2023-08-01T04:23:41;4.47;;;3.03;;
8556;SDS011;4316;53.840;10.762;2023-08-01T04:26:07;4.85;;;2.88;;
8556;SDS011;4316;53.840;10.762;2023-08-01T04:28:32;3.33;;;3.13;;
8556;SDS011;4316;53.840;10.762;2023-08-01T04:31:01;7.00;;;3.30;;
8556;SDS011;4316;53.840;10.762;2023-08-01T04:33:26;4.50;;;2.78;;
8556;SDS011;4316;53.840;10.762;2023-08-01T04:35:52;4.38;;;2.92;;
8556;SDS011;4316;53.840;10.762;2023-08-01T04:38:18;6.00;;;3.42;;
8556;SDS011;4316;53.840;10.762;2023-08-01T04:40:44;3.30;;;3.00;;
8556;SDS011;4316;53.840;10.762;2023-08-01T04:43:10;6.38;;;3.17;;
8556;SDS011;4316;53.840;10.762;2023-08-01T04:45:36;4.70;;;2.95;;
8556;SDS011;4316;53.840;10.762;2023-08-01T04:48:02;9.52;;;3.28;;
8556;SDS011;4316;53.840;10.762;2023-08-01T04:50:28;8.10;;;3.78;;
8556;SDS011;4316;53.840;10.762;2023-08-01T04:52:53;5.35;;;3.70;;
8556;SDS011;4316;53.840;10.762;2023-08-01T04:55:19;3.25;;;3.00;;
8556;SDS011;4316;53.840;10.762;2023-08-01T04:57:45;3.53;;;3.17;;
8556;SDS011;4316;53.840;10.762;2023-08-01T05:00:10;2.92;;;2.72;;
8556;SDS011;4316;53.840;10.762;2023-08-01T05:02:36;5.43;;;3.00;;
8556;SDS011;4316;53.840;10.762;2023-08-01T05:05:02;6.07;;;3.20;;
8556;SDS011;4316;53.840;10.762;2023-08-01T05:07:28;8.70;;;2.83;;
8556;SDS011;4316;53.840;10.762;2023-08-01T05:09:54;4.43;;;3.20;;
8556;SDS011;4316;53.840;10.762;2023-08-01T05:12:20;4.00;;;2.92;;
8556;SDS011;4316;53.840;10.762;2023-08-01T05:14:45;3.42;;;3.10;;
8556;SDS011;4316;53.840;10.762;2023-08-01T05:17:11;3.65;;;3.25;;
8556;SDS011;4316;53.840;10.762;2023-08-01T05:19:37;3.65;;;3.20;;
8556;SDS011;4316;53.840;10.762;2023-08-01T05:22:02;4.57;;;3.33;;
8556;SDS011;4316;53.840;10.762;2023-08-01T05:24:28;4.45;;;3.30;;
8556;SDS011;4316;53.840;10.762;2023-08-01T05:26:53;17.17;;;4.03;;
8556;SDS011;4316;53.840;10.762;2023-08-01T05:29:19;5.47;;;3.30;;
8556;SDS011;4316;53.840;10.762;2023-08-01T05:31:44;4.93;;;3.10;;
8556;SDS011;4316;53.840;10.762;2023-08-01T05:34:10;7.00;;;3.38;;
8556;SDS011;4316;53.840;10.762;2023-08-01T05:36:35;6.75;;;3.63;;
8556;SDS011;4316;53.840;10.762;2023-08-01T05:39:02;6.95;;;3.70;;
8556;SDS011;4316;53.840;10.762;2023-08-01T05:41:28;6.93;;;3.17;;
8556;SDS011;4316;53.840;10.762;2023-08-01T05:43:54;7.22;;;3.47;;
8556;SDS011;4316;53.840;10.762;2023-08-01T05:46:20;10.50;;;3.92;;
8556;SDS011;4316;53.840;10.762;2023-08-01T05:48:45;4.05;;;3.38;;
8556;SDS011;4316;53.840;10.762;2023-08-01T05:51:11;13.73;;;3.85;;
8556;SDS011;4316;53.840;10.762;2023-08-01T05:53:36;3.83;;;3.40;;
8556;SDS011;4316;53.840;10.762;2023-08-01T05:56:02;4.47;;;3.83;;
8556;SDS011;4316;53.840;10.762;2023-08-01T05:58:29;5.93;;;3.50;;
8556;SDS011;4316;53.840;10.762;2023-08-01T06:00:55;9.32;;;4.50;;
8556;SDS011;4316;53.840;10.762;2023-08-01T06:03:21;9.27;;;4.13;;
8556;SDS011;4316;53.840;10.762;2023-08-01T06:05:46;5.97;;;3.87;;
8556;SDS011;4316;53.840;10.762;2023-08-01T06:08:12;5.25;;;3.45;;
8556;SDS011;4316;53.840;10.762;2023-08-01T06:10:38;7.30;;;3.88;;
8556;SDS011;4316;53.840;10.762;2023-08-01T06:13:04;8.23;;;3.42;;
8556;SDS011;4316;53.840;10.762;2023-08-01T06:15:29;5.60;;;4.05;;
8556;SDS011;4316;53.840;10.762;2023-08-01T06:17:55;4.68;;;3.78;;
8556;SDS011;4316;53.840;10.762;2023-08-01T06:20:20;9.60;;;4.22;;
8556;SDS011;4316;53.840;10.762;2023-08-01T06:22:46;4.10;;;3.70;;
8556;SDS011;4316;53.840;10.762;2023-08-01T06:25:12;6.13;;;4.05;;
8556;SDS011;4316;53.840;10.762;2023-08-01T06:27:37;4.97;;;3.38;;
8556;SDS011;4316;53.840;10.762;2023-08-01T06:30:03;9.13;;;4.38;;
8556;SDS011;4316;53.840;10.762;2023-08-01T06:32:30;4.93;;;3.78;;
8556;SDS011;4316;53.840;10.762;2023-08-01T06:34:55;8.43;;;3.65;;
8556;SDS011;4316;53.840;10.762;2023-08-01T06:37:21;8.27;;;4.00;;
8556;SDS011;4316;53.840;10.762;2023-08-01T06:39:46;9.70;;;3.60;;
8556;SDS011;4316;53.840;10.762;2023-08-01T06:42:12;9.15;;;4.22;;
8556;SDS011;4316;53.840;10.762;2023-08-01T06:44:37;8.57;;;4.00;;
8556;SDS011;4316;53.840;10.762;2023-08-01T06:47:03;5.97;;;3.80;;
8556;SDS011;4316;53.840;10.762;2023-08-01T06:49:29;5.43;;;3.63;;
8556;SDS011;4316;53.840;10.762;2023-08-01T06:51:54;5.68;;;3.70;;
8556;SDS011;4316;53.840;10.762;2023-08-01T06:54:20;32.47;;;4.60;;
8556;SDS011;4316;53.840;10.762;2023-08-01T06:56:45;9.00;;;3.85;;
8556;SDS011;4316;53.840;10.762;2023-08-01T06:59:14;13.18;;;4.40;;
8556;SDS011;4316;53.840;10.762;2023-08-01T07:01:40;7.68;;;3.88;;
8556;SDS011;4316;53.840;10.762;2023-08-01T07:04:08;15.63;;;8.85;;
8556;SDS011;4316;53.840;10.762;2023-08-01T07:06:37;7.60;;;4.00;;
8556;SDS011;4316;53.840;10.762;2023-08-01T07:09:03;9.30;;;3.70;;
8556;SDS011;4316;53.840;10.762;2023-08-01T07:11:28;8.60;;;3.53;;
8556;SDS011;4316;53.840;10.762;2023-08-01T07:13:54;4.78;;;3.25;;
8556;SDS011;4316;53.840;10.762;2023-08-01T07:16:19;4.43;;;3.30;;
8556;SDS011;4316;53.840;10.762;2023-08-01T07:18:45;6.85;;;3.97;;
8556;SDS011;4316;53.840;10.762;2023-08-01T07:21:11;6.75;;;3.22;;
8556;SDS011;4316;53.840;10.762;2023-08-01T07:23:36;8.25;;;3.70;;
8556;SDS011;4316;53.840;10.762;2023-08-01T07:26:02;5.50;;;3.05;;
8556;SDS011;4316;53.840;10.762;2023-08-01T07:28:28;5.97;;;3.08;;
8556;SDS011;4316;53.840;10.762;2023-08-01T07:31:04;7.90;;;3.40;;
8556;SDS011;4316;53.840;10.762;2023-08-01T07:33:31;9.05;;;3.10;;
8556;SDS011;4316;53.840;10.762;2023-08-01T07:35:58;8.93;;;3.80;;
8556;SDS011;4316;53.840;10.762;2023-08-01T07:38:23;7.75;;;3.33;;
8556;SDS011;4316;53.840;10.762;2023-08-01T07:40:49;9.40;;;2.97;;
8556;SDS011;4316;53.840;10.762;2023-08-01T07:43:15;7.18;;;4.05;;
8556;SDS011;4316;53.840;10.762;2023-08-01T07:45:41;15.77;;;3.50;;
8556;SDS011;4316;53.840;10.762;2023-08-01T07:48:06;8.23;;;3.45;;
8556;SDS011;4316;53.840;10.762;2023-08-01T07:50:32;8.07;;;3.20;;
8556;SDS011;4316;53.840;10.762;2023-08-01T07:52:58;7.72;;;3.13;;
8556;SDS011;4316;53.840;10.762;2023-08-01T07:55:23;8.85;;;3.35;;
8556;SDS011;4316;53.840;10.762;2023-08-01T07:57:49;5.65;;;3.03;;
8556;SDS011;4316;53.840;10.762;2023-08-01T08:00:15;6.45;;;3.13;;
8556;SDS011;4316;53.840;10.762;2023-08-01T08:02:41;10.88;;;3.55;;
8556;SDS011;4316;53.840;10.762;2023-08-01T08:05:08;7.40;;;3.58;;
8556;SDS011;4316;53.840;10.762;2023-08-01T08:07:34;8.15;;;3.22;;
8556;SDS011;4316;53.840;10.762;2023-08-01T08:10:01;8.95;;;2.95;;
8556;SDS011;4316;53.840;10.762;2023-08-01T08:12:26;10.15;;;3.17;;
8556;SDS011;4316;53.840;10.762;2023-08-01T08:14:52;10.00;;;3.20;;
8556;SDS011;4316;53.840;10.762;2023-08-01T08:17:17;10.10;;;2.83;;
8556;SDS011;4316;53.840;10.762;2023-08-01T08:19:44;15.02;;;3.53;;
8556;SDS011;4316;53.840;10.762;2023-08-01T08:22:10;7.97;;;2.78;;
8556;SDS011;4316;53.840;10.762;2023-08-01T08:24:35;9.88;;;2.85;;
8556;SDS011;4316;53.840;10.762;2023-08-01T08:27:01;8.40;;;2.90;;
8556;SDS011;4316;53.840;10.762;2023-08-01T08:29:27;11.50;;;2.95;;
8556;SDS011;4316;53.840;10.762;2023-08-01T08:31:52;12.68;;;2.80;;
8556;SDS011;4316;53.840;10.762;2023-08-01T08:34:18;5.20;;;2.60;;
8556;SDS011;4316;53.840;10.762;2023-08-01T08:36:43;3.08;;;2.25;;
8556;SDS011;4316;53.840;10.762;2023-08-01T08:39:09;5.88;;;2.45;;
8556;SDS011;4316;53.840;10.762;2023-08-01T08:41:38;6.05;;;2.80;;
8556;SDS011;4316;53.840;10.762;2023-08-01T08:44:11;6.93;;;2.50;;
8556;SDS011;4316;53.840;10.762;2023-08-01T08:46:41;6.55;;;2.65;;
8556;SDS011;4316;53.840;10.762;2023-08-01T08:49:08;14.15;;;3.03;;
8556;SDS011;4316;53.840;10.762;2023-08-01T08:51:34;4.57;;;2.50;;
8556;SDS011;4316;53.840;10.762;2023-08-01T08:54:03;3.20;;;2.13;;
8556;SDS011;4316;53.840;10.762;2023-08-01T08:56:31;4.40;;;2.22;;
8556;SDS011;4316;53.840;10.762;2023-08-01T08:58:58;3.42;;;2.28;;
8556;SDS011;4316;53.840;10.762;2023-08-01T09:01:24;3.80;;;2.13;;
8556;SDS011;4316;53.840;10.762;2023-08-01T09:03:50;5.15;;;2.25;;
8556;SDS011;4316;53.840;10.762;2023-08-01T09:06:17;13.27;;;2.47;;
8556;SDS011;4316;53.840;10.762;2023-08-01T09:08:55;3.70;;;2.30;;
8556;SDS011;4316;53.840;10.762;2023-08-01T09:11:26;5.72;;;2.63;;
8556;SDS011;4316;53.840;10.762;2023-08-01T09:13:52;10.52;;;2.28;;
8556;SDS011;4316;53.840;10.762;2023-08-01T09:16:18;6.07;;;2.33;;
8556;SDS011;4316;53.840;10.762;2023-08-01T09:18:48;6.18;;;2.35;;
8556;SDS011;4316;53.840;10.762;2023-08-01T09:21:17;5.57;;;2.35;;
8556;SDS011;4316;53.840;10.762;2023-08-01T09:23:43;4.90;;;2.08;;
8556;SDS011;4316;53.840;10.762;2023-08-01T09:26:15;7.68;;;2.63;;
8556;SDS011;4316;53.840;10.762;2023-08-01T09:28:42;4.88;;;2.20;;
8556;SDS011;4316;53.840;10.762;2023-08-01T09:31:09;5.25;;;2.28;;
8556;SDS011;4316;53.840;10.762;2023-08-01T09:33:41;4.45;;;2.38;;
8556;SDS011;4316;53.840;10.762;2023-08-01T09:36:08;16.10;;;3.47;;
8556;SDS011;4316;53.840;10.762;2023-08-01T09:38:37;5.25;;;2.53;;
8556;SDS011;4316;53.840;10.762;2023-08-01T09:41:03;7.35;;;2.25;;
8556;SDS011;4316;53.840;10.762;2023-08-01T09:43:36;10.90;;;2.47;;
8556;SDS011;4316;53.840;10.762;2023-08-01T09:46:02;8.60;;;2.40;;
8556;SDS011;4316;53.840;10.762;2023-08-01T09:48:29;3.13;;;2.00;;
8556;SDS011;4316;53.840;10.762;2023-08-01T09:51:05;6.07;;;2.50;;
8556;SDS011;4316;53.840;10.762;2023-08-01T09:53:36;6.13;;;2.17;;
8556;SDS011;4316;53.840;10.762;2023-08-01T09:56:21;4.35;;;2.40;;
8556;SDS011;4316;53.840;10.762;2023-08-01T09:58:51;4.72;;;2.28;;
8556;SDS011;4316;53.840;10.762;2023-08-01T10:01:19;8.85;;;2.10;;
8556;SDS011;4316;53.840;10.762;2023-08-01T10:03:48;6.78;;;1.83;;
8556;SDS011;4316;53.840;10.762;2023-08-01T10:06:19;4.72;;;1.85;;
8556;SDS011;4316;53.840;10.762;2023-08-01T10:08:46;4.35;;;2.00;;
8556;SDS011;4316;53.840;10.762;2023-08-01T10:11:17;4.05;;;1.92;;
8556;SDS011;4316;53.840;10.762;2023-08-01T10:13:43;3.42;;;1.73;;
8556;SDS011;4316;53.840;10.762;2023-08-01T10:16:10;3.53;;;1.98;;
8556;SDS011;4316;53.840;10.762;2023-08-01T10:18:37;6.43;;;2.25;;
8556;SDS011;4316;53.840;10.762;2023-08-01T10:21:11;5.80;;;2.53;;
8556;SDS011;4316;53.840;10.762;2023-08-01T10:23:40;4.22;;;1.77;;
8556;SDS011;4316;53.840;10.762;2023-08-01T10:26:06;4.78;;;2.30;;
8556;SDS011;4316;53.840;10.762;2023-08-01T10:28:34;10.73;;;2.13;;
8556;SDS011;4316;53.840;10.762;2023-08-01T10:31:11;2.78;;;1.75;;
8556;SDS011;4316;53.840;10.762;2023-08-01T10:33:38;3.25;;;1.80;;
8556;SDS011;4316;53.840;10.762;2023-08-01T10:36:12;6.40;;;1.92;;
8556;SDS011;4316;53.840;10.762;2023-08-01T10:38:52;7.20;;;1.90;;
8556;SDS011;4316;53.840;10.762;2023-08-01T10:41:24;2.35;;;1.90;;
8556;SDS011;4316;53.840;10.762;2023-08-01T10:43:50;6.65;;;1.42;;
8556;SDS011;4316;53.840;10.762;2023-08-01T10:46:16;4.35;;;1.42;;
8556;SDS011;4316;53.840;10.762;2023-08-01T10:48:51;2.10;;;1.45;;
8556;SDS011;4316;53.840;10.762;2023-08-01T10:51:17;1.75;;;1.15;;
8556;SDS011;4316;53.840;10.762;2023-08-01T10:53:43;2.88;;;1.45;;
8556;SDS011;4316;53.840;10.762;2023-08-01T10:56:16;1.20;;;1.10;;
8556;SDS011;4316;53.840;10.762;2023-08-01T10:58:43;4.13;;;1.20;;
8556;SDS011;4316;53.840;10.762;2023-08-01T11:01:09;1.25;;;1.05;;
8556;SDS011;4316;53.840;10.762;2023-08-01T11:03:35;1.90;;;1.00;;
8556;SDS011;4316;53.840;10.762;2023-08-01T11:06:02;1.33;;;1.00;;
8556;SDS011;4316;53.840;10.762;2023-08-01T11:08:38;3.50;;;1.48;;
8556;SDS011;4316;53.840;10.762;2023-08-01T11:11:08;4.65;;;1.30;;
8556;SDS011;4316;53.840;10.762;2023-08-01T11:13:37;1.95;;;1.17;;
8556;SDS011;4316;53.840;10.762;2023-08-01T11:16:03;2.38;;;1.30;;
8556;SDS011;4316;53.840;10.762;2023-08-01T11:18:39;1.65;;;1.10;;
8556;SDS011;4316;53.840;10.762;2023-08-01T11:21:08;7.25;;;1.45;;
8556;SDS011;4316;53.840;10.762;2023-08-01T11:23:34;3.03;;;1.33;;
8556;SDS011;4316;53.840;10.762;2023-08-01T11:26:01;1.73;;;1.30;;
8556;SDS011;4316;53.840;10.762;2023-08-01T11:28:33;2.72;;;1.20;;
8556;SDS011;4316;53.840;10.762;2023-08-01T11:30:59;6.88;;;1.50;;
8556;SDS011;4316;53.840;10.762;2023-08-01T11:33:24;2.20;;;1.65;;
8556;SDS011;4316;53.840;10.762;2023-08-01T11:35:50;2.75;;;1.60;;
8556;SDS011;4316;53.840;10.762;2023-08-01T11:38:18;3.47;;;1.38;;
8556;SDS011;4316;53.840;10.762;2023-08-01T11:40:46;1.25;;;1.10;;
8556;SDS011;4316;53.840;10.762;2023-08-01T11:43:14;2.25;;;1.42;;
8556;SDS011;4316;53.840;10.762;2023-08-01T11:45:50;5.47;;;0.88;;
8556;SDS011;4316;53.840;10.762;2023-08-01T11:48:23;3.55;;;0.85;;
8556;SDS011;4316;53.840;10.762;2023-08-01T11:50:49;0.77;;;0.70;;
8556;SDS011;4316;53.840;10.762;2023-08-01T11:53:21;1.00;;;0.90;;
8556;SDS011;4316;53.840;10.762;2023-08-01T11:55:50;1.70;;;0.75;;
8556;SDS011;4316;53.840;10.762;2023-08-01T11:58:31;4.32;;;0.75;;
8556;SDS011;4316;53.840;10.762;2023-08-01T12:01:16;1.17;;;0.88;;
8556;SDS011;4316;53.840;10.762;2023-08-01T12:03:43;2.80;;;1.00;;
8556;SDS011;4316;53.840;10.762;2023-08-01T12:06:12;3.15;;;1.20;;
8556;SDS011;4316;53.840;10.762;2023-08-01T12:08:39;7.57;;;0.88;;
8556;SDS011;4316;53.840;10.762;2023-08-01T12:11:24;0.85;;;0.75;;
8556;SDS011;4316;53.840;10.762;2023-08-01T12:14:01;1.65;;;0.60;;
8556;SDS011;4316;53.840;10.762;2023-08-01T12:16:28;1.95;;;0.65;;
8556;SDS011;4316;53.840;10.762;2023-08-01T12:18:55;1.15;;;0.80;;
8556;SDS011;4316;53.840;10.762;2023-08-01T12:21:21;1.27;;;0.80;;
8556;SDS011;4316;53.840;10.762;2023-08-01T12:23:47;5.53;;;0.88;;
8556;SDS011;4316;53.840;10.762;2023-08-01T12:26:13;0.63;;;0.63;;
8556;SDS011;4316;53.840;10.762;2023-08-01T12:28:38;4.82;;;1.10;;
8556;SDS011;4316;53.840;10.762;2023-08-01T12:31:04;3.35;;;1.15;;
8556;SDS011;4316;53.840;10.762;2023-08-01T12:33:29;1.08;;;0.80;;
8556;SDS011;4316;53.840;10.762;2023-08-01T12:35:56;2.67;;;0.80;;
8556;SDS011;4316;53.840;10.762;2023-08-01T12:38:21;1.48;;;1.00;;
8556;SDS011;4316;53.840;10.762;2023-08-01T12:40:47;3.70;;;1.20;;
8556;SDS011;4316;53.840;10.762;2023-08-01T12:43:13;2.53;;;1.02;;
8556;SDS011;4316;53.840;10.762;2023-08-01T12:45:39;2.00;;;0.95;;
8556;SDS011;4316;53.840;10.762;2023-08-01T12:48:05;5.03;;;1.05;;
8556;SDS011;4316;53.840;10.762;2023-08-01T12:50:30;3.53;;;1.40;;
8556;SDS011;4316;53.840;10.762;2023-08-01T12:52:56;4.53;;;1.10;;
8556;SDS011;4316;53.840;10.762;2023-08-01T12:55:21;1.00;;;0.90;;
8556;SDS011;4316;53.840;10.762;2023-08-01T12:57:47;6.85;;;0.95;;
8556;SDS011;4316;53.840;10.762;2023-08-01T13:00:13;1.15;;;0.93;;
8556;SDS011;4316;53.840;10.762;2023-08-01T13:02:38;1.10;;;1.00;;
8556;SDS011;4316;53.840;10.762;2023-08-01T13:05:04;10.18;;;1.42;;
8556;SDS011;4316;53.840;10.762;2023-08-01T13:07:30;5.03;;;1.10;;
8556;SDS011;4316;53.840;10.762;2023-08-01T13:09:59;3.15;;;1.00;;
8556;SDS011;4316;53.840;10.762;2023-08-01T13:12:25;3.00;;;1.15;;
8556;SDS011;4316;53.840;10.762;2023-08-01T13:14:52;2.92;;;1.08;;
8556;SDS011;4316;53.840;10.762;2023-08-01T13:17:18;1.13;;;1.02;;
8556;SDS011;4316;53.840;10.762;2023-08-01T13:19:44;4.88;;;1.02;;
8556;SDS011;4316;53.840;10.762;2023-08-01T13:22:09;0.73;;;0.70;;
8556;SDS011;4316;53.840;10.762;2023-08-01T13:24:35;1.48;;;0.85;;
8556;SDS011;4316;53.840;10.762;2023-08-01T13:27:01;0.75;;;0.60;;
8556;SDS011;4316;53.840;10.762;2023-08-01T13:29:26;1.52;;;0.80;;
8556;SDS011;4316;53.840;10.762;2023-08-01T13:31:52;1.58;;;1.00;;
8556;SDS011;4316;53.840;10.762;2023-08-01T13:34:18;11.80;;;1.08;;
8556;SDS011;4316;53.840;10.762;2023-08-01T13:36:44;1.05;;;0.70;;
8556;SDS011;4316;53.840;10.762;2023-08-01T13:39:09;0.95;;;0.50;;
8556;SDS011;4316;53.840;10.762;2023-08-01T13:41:35;0.68;;;0.68;;
8556;SDS011;4316;53.840;10.762;2023-08-01T13:44:00;0.60;;;0.60;;
8556;SDS011;4316;53.840;10.762;2023-08-01T13:46:27;1.02;;;0.50;;
8556;SDS011;4316;53.840;10.762;2023-08-01T13:48:52;0.70;;;0.60;;
8556;SDS011;4316;53.840;10.762;2023-08-01T13:51:18;1.17;;;0.90;;
8556;SDS011;4316;53.840;10.762;2023-08-01T13:53:44;0.77;;;0.70;;
8556;SDS011;4316;53.840;10.762;2023-08-01T13:56:10;1.48;;;0.63;;
8556;SDS011;4316;53.840;10.762;2023-08-01T13:58:37;0.60;;;0.60;;
8556;SDS011;4316;53.840;10.762;2023-08-01T14:01:03;1.65;;;0.80;;
8556;SDS011;4316;53.840;10.762;2023-08-01T14:03:34;0.70;;;0.70;;
8556;SDS011;4316;53.840;10.762;2023-08-01T14:06:06;0.90;;;0.77;;
8556;SDS011;4316;53.840;10.762;2023-08-01T14:08:33;0.50;;;0.50;;
8556;SDS011;4316;53.840;10.762;2023-08-01T14:10:59;2.20;;;0.70;;
8556;SDS011;4316;53.840;10.762;2023-08-01T14:13:26;0.60;;;0.60;;
8556;SDS011;4316;53.840;10.762;2023-08-01T14:15:51;1.88;;;0.75;;
8556;SDS011;4316;53.840;10.762;2023-08-01T14:18:17;1.10;;;0.70;;
8556;SDS011;4316;53.840;10.762;2023-08-01T14:20:42;0.80;;;0.80;;
8556;SDS011;4316;53.840;10.762;2023-08-01T14:23:08;0.40;;;0.40;;
8556;SDS011;4316;53.840;10.762;2023-08-01T14:25:34;0.68;;;0.63;;
8556;SDS011;4316;53.840;10.762;2023-08-01T14:28:00;0.63;;;0.60;;
8556;SDS011;4316;53.840;10.762;2023-08-01T14:30:25;0.80;;;0.60;;
8556;SDS011;4316;53.840;10.762;2023-08-01T14:32:51;0.75;;;0.50;;
8556;SDS011;4316;53.840;10.762;2023-08-01T14:35:24;0.63;;;0.63;;
8556;SDS011;4316;53.840;10.762;2023-08-01T14:37:50;4.30;;;0.70;;
8556;SDS011;4316;53.840;10.762;2023-08-01T14:40:15;0.60;;;0.60;;
8556;SDS011;4316;53.840;10.762;2023-08-01T14:42:41;1.38;;;0.85;;
8556;SDS011;4316;53.840;10.762;2023-08-01T14:45:07;0.90;;;0.77;;
8556;SDS011;4316;53.840;10.762;2023-08-01T14:47:32;0.93;;;0.70;;
8556;SDS011;4316;53.840;10.762;2023-08-01T14:49:59;0.50;;;0.50;;
8556;SDS011;4316;53.840;10.762;2023-08-01T14:52:25;5.82;;;0.70;;
8556;SDS011;4316;53.840;10.762;2023-08-01T14:54:50;3.13;;;1.00;;
8556;SDS011;4316;53.840;10.762;2023-08-01T14:57:16;2.60;;;0.90;;